Time;durP1;ratioP1;P1;durP2;ratioP2;P2;SDS_P1;SDS_P2;PMS_P1;PMS_P2;Temp;Humidity;BMP_temperature;BMP_pressure;BME280_temperature;BME280_humidity;BME280_pressure;Samples;Min_cycle;Max_cycle;Signal;HPM_P1;HPM_P2
2021/09/29 00:01:56;;;;;;;20.83;8.75;;;;;;;;;;5030504;28;20053;-74
2021/09/29 00:04:22;;;;;;;19.17;9.10;;;;;;;;;;5030060;28;20033;-76
2021/09/29 00:06:48;;;;;;;17.02;9.60;;;;;;;;;;5029963;28;20112;-75
2021/09/29 00:09:14;;;;;;;25.45;9.85;;;;;;;;;;5029707;28;20111;-74
2021/09/29 00:11:39;;;;;;;19.42;9.68;;;;;;;;;;5028613;28;20061;-75
2021/09/29 00:14:05;;;;;;;18.98;9.20;;;;;;;;;;5029615;28;20029;-75
2021/09/29 00:16:30;;;;;;;20.45;9.77;;;;;;;;;;5027902;28;20389;-75
2021/09/29 00:18:56;;;;;;;16.70;9.65;;;;;;;;;;5027237;28;20163;-74
2021/09/29 00:21:21;;;;;;;16.83;8.45;;;;;;;;;;5028353;28;20037;-76
2021/09/29 00:23:47;;;;;;;19.20;10.48;;;;;;;;;;5028803;28;20041;-76
2021/09/29 00:26:17;;;;;;;22.48;9.73;;;;;;;;;;5028256;28;20394;-75
2021/09/29 00:28:42;;;;;;;21.08;11.90;;;;;;;;;;5012405;28;20048;-75
2021/09/29 00:31:23;;;;;;;17.40;8.63;;;;;;;;;;5028337;28;20068;-75
2021/09/29 00:33:50;;;;;;;19.90;9.65;;;;;;;;;;5029410;28;20053;-75
2021/09/29 00:36:17;;;;;;;20.42;9.50;;;;;;;;;;5028389;28;20134;-75
2021/09/29 00:38:42;;;;;;;15.85;8.80;;;;;;;;;;5028243;28;20029;-75
2021/09/29 00:41:08;;;;;;;20.70;10.05;;;;;;;;;;5027842;28;20041;-75
2021/09/29 00:43:33;;;;;;;23.00;13.02;;;;;;;;;;5029303;28;20037;-75
2021/09/29 00:45:59;;;;;;;18.65;9.43;;;;;;;;;;5028992;28;20026;-75
2021/09/29 00:48:25;;;;;;;19.92;10.38;;;;;;;;;;5029547;28;20095;-74
2021/09/29 00:50:50;;;;;;;24.73;10.30;;;;;;;;;;5028023;28;20132;-74
2021/09/29 00:53:17;;;;;;;16.73;10.43;;;;;;;;;;5029540;28;20065;-73
2021/09/29 00:55:43;;;;;;;21.60;10.18;;;;;;;;;;5028009;28;20393;-73
2021/09/29 00:58:09;;;;;;;19.83;9.45;;;;;;;;;;5030176;28;20033;-73
2021/09/29 01:00:34;;;;;;;16.88;9.05;;;;;;;;;;5033208;28;20037;-74
2021/09/29 01:03:01;;;;;;;14.45;8.23;;;;;;;;;;5032948;28;20033;-72
2021/09/29 01:05:26;;;;;;;17.08;9.05;;;;;;;;;;5032170;28;20054;-73
2021/09/29 01:08:07;;;;;;;15.40;8.95;;;;;;;;;;5015161;28;20030;-72
2021/09/29 01:10:38;;;;;;;15.85;8.50;;;;;;;;;;5031652;28;20037;-72
2021/09/29 01:13:33;;;;;;;16.63;9.32;;;;;;;;;;5031643;28;20029;-71
2021/09/29 01:16:03;;;;;;;15.60;8.57;;;;;;;;;;5031524;28;20091;-73
2021/09/29 01:18:34;;;;;;;21.83;10.98;;;;;;;;;;5033010;28;20037;-73
2021/09/29 01:21:06;;;;;;;19.75;9.30;;;;;;;;;;5031458;28;20029;-74
2021/09/29 01:24:14;;;;;;;15.63;8.27;;;;;;;;;;5031539;28;20030;-73
2021/09/29 01:26:41;;;;;;;17.27;9.20;;;;;;;;;;5040050;28;20520;-73
2021/09/29 01:29:10;;;;;;;18.85;9.60;;;;;;;;;;5015127;28;20037;-72
2021/09/29 01:31:36;;;;;;;22.80;10.15;;;;;;;;;;5032865;28;20059;-73
2021/09/29 01:34:04;;;;;;;19.40;10.70;;;;;;;;;;5032358;28;20502;-73
2021/09/29 01:36:30;;;;;;;22.15;9.82;;;;;;;;;;5031396;28;20032;-73
2021/09/29 01:38:58;;;;;;;20.30;9.15;;;;;;;;;;5031317;28;20032;-73
2021/09/29 01:41:27;;;;;;;18.73;9.90;;;;;;;;;;5031461;28;20030;-73
2021/09/29 01:43:53;;;;;;;19.48;10.55;;;;;;;;;;5032762;28;20474;-76
2021/09/29 01:46:20;;;;;;;20.65;9.70;;;;;;;;;;5032424;28;20057;-75
2021/09/29 01:49:02;;;;;;;20.75;10.30;;;;;;;;;;5031319;28;20029;-74
2021/09/29 01:51:30;;;;;;;17.92;10.77;;;;;;;;;;5031080;28;20080;-73
2021/09/29 01:53:57;;;;;;;22.92;10.20;;;;;;;;;;5031229;28;20036;-73
2021/09/29 01:56:23;;;;;;;19.88;10.63;;;;;;;;;;5032281;28;20097;-75
2021/09/29 01:58:49;;;;;;;21.08;10.55;;;;;;;;;;5032817;28;20055;-74
2021/09/29 02:01:14;;;;;;;21.15;10.57;;;;;;;;;;5034404;28;20025;-74
2021/09/29 02:03:45;;;;;;;20.45;11.25;;;;;;;;;;5034060;28;20040;-74
2021/09/29 02:06:10;;;;;;;23.83;11.90;;;;;;;;;;5034348;28;20497;-73
2021/09/29 02:08:36;;;;;;;24.92;10.65;;;;;;;;;;5032280;28;20029;-74
2021/09/29 02:11:01;;;;;;;23.63;12.57;;;;;;;;;;5032053;28;20029;-75
2021/09/29 02:13:27;;;;;;;25.88;12.52;;;;;;;;;;5033463;28;20022;-76
2021/09/29 02:15:52;;;;;;;23.13;11.18;;;;;;;;;;5032867;28;20100;-75
2021/09/29 02:18:18;;;;;;;24.23;11.77;;;;;;;;;;5032713;28;20042;-76
2021/09/29 02:20:43;;;;;;;34.47;13.48;;;;;;;;;;5032211;28;20018;-75
2021/09/29 02:23:09;;;;;;;30.92;13.55;;;;;;;;;;5030347;28;20037;-75
2021/09/29 02:25:34;;;;;;;35.00;13.20;;;;;;;;;;5030544;28;20026;-74
2021/09/29 02:28:00;;;;;;;29.52;12.75;;;;;;;;;;5030248;28;20128;-74
2021/09/29 02:30:25;;;;;;;29.63;13.10;;;;;;;;;;5031476;28;20105;-75
2021/09/29 02:32:51;;;;;;;35.55;14.02;;;;;;;;;;5030215;28;20049;-74
2021/09/29 02:35:17;;;;;;;28.08;12.57;;;;;;;;;;5030169;28;20021;-75
2021/09/29 02:37:42;;;;;;;29.55;11.63;;;;;;;;;;5031567;28;20029;-75
2021/09/29 02:40:08;;;;;;;35.15;12.55;;;;;;;;;;5030116;28;20111;-75
2021/09/29 02:42:33;;;;;;;30.45;12.57;;;;;;;;;;5030519;28;20113;-77
2021/09/29 02:45:01;;;;;;;35.60;15.05;;;;;;;;;;5032257;28;20056;-75
2021/09/29 02:47:27;;;;;;;35.00;14.40;;;;;;;;;;5031564;28;20045;-73
2021/09/29 02:49:52;;;;;;;34.70;14.32;;;;;;;;;;5032013;28;20026;-73
2021/09/29 02:52:18;;;;;;;35.90;15.02;;;;;;;;;;5031864;28;20489;-73
2021/09/29 02:54:43;;;;;;;43.08;16.67;;;;;;;;;;5032010;28;20482;-73
2021/09/29 02:57:09;;;;;;;39.33;15.10;;;;;;;;;;5030699;28;20125;-73
2021/09/29 02:59:35;;;;;;;47.65;18.63;;;;;;;;;;5030690;28;20025;-73
2021/09/29 03:02:01;;;;;;;37.42;14.20;;;;;;;;;;5032309;28;20029;-73
2021/09/29 03:04:26;;;;;;;42.92;15.93;;;;;;;;;;5030637;28;20025;-73
2021/09/29 03:06:52;;;;;;;39.13;16.30;;;;;;;;;;5030417;28;20389;-73
2021/09/29 03:09:17;;;;;;;35.10;16.45;;;;;;;;;;5031623;28;20017;-73
2021/09/29 03:11:43;;;;;;;41.97;15.52;;;;;;;;;;5030057;28;20108;-74
2021/09/29 03:14:09;;;;;;;44.85;17.00;;;;;;;;;;5030654;28;20025;-75
2021/09/29 03:16:34;;;;;;;44.38;17.60;;;;;;;;;;5030056;28;20202;-74
2021/09/29 03:19:00;;;;;;;64.03;20.83;;;;;;;;;;5028902;28;20029;-74
2021/09/29 03:21:26;;;;;;;51.38;19.63;;;;;;;;;;5029536;28;20021;-75
2021/09/29 03:23:51;;;;;;;52.10;19.92;;;;;;;;;;5030577;28;20389;-74
2021/09/29 03:26:17;;;;;;;59.50;21.88;;;;;;;;;;5030681;28;20021;-74
2021/09/29 03:28:44;;;;;;;65.15;21.02;;;;;;;;;;5029722;28;20370;-73
2021/09/29 03:31:10;;;;;;;72.20;24.00;;;;;;;;;;5029610;28;20025;-73
2021/09/29 03:33:35;;;;;;;60.65;21.27;;;;;;;;;;5029033;28;20250;-73
2021/09/29 03:36:01;;;;;;;61.40;20.35;;;;;;;;;;5029043;28;20025;-73
2021/09/29 03:38:26;;;;;;;59.17;22.40;;;;;;;;;;5028963;28;20089;-72
2021/09/29 03:40:52;;;;;;;61.25;20.55;;;;;;;;;;5029152;28;20025;-72
2021/09/29 03:43:20;;;;;;;62.25;23.58;;;;;;;;;;5030130;28;20079;-73
2021/09/29 03:45:46;;;;;;;61.97;22.00;;;;;;;;;;5029009;28;20039;-72
2021/09/29 03:48:12;;;;;;;60.13;21.25;;;;;;;;;;5028708;28;20107;-72
2021/09/29 03:50:37;;;;;;;68.10;21.33;;;;;;;;;;5030038;28;20029;-73
2021/09/29 03:53:03;;;;;;;69.07;21.67;;;;;;;;;;5028887;28;20048;-73
2021/09/29 03:55:28;;;;;;;67.88;22.35;;;;;;;;;;5028472;28;20025;-73
2021/09/29 03:57:54;;;;;;;56.33;23.05;;;;;;;;;;5028684;28;20029;-73
2021/09/29 04:00:19;;;;;;;71.22;24.17;;;;;;;;;;5029897;28;20021;-73
2021/09/29 04:02:45;;;;;;;61.80;22.85;;;;;;;;;;5028707;28;20033;-73
2021/09/29 04:05:10;;;;;;;67.68;24.42;;;;;;;;;;5028287;28;20113;-72
2021/09/29 04:07:37;;;;;;;55.17;22.67;;;;;;;;;;5029845;28;20029;-72
2021/09/29 04:10:04;;;;;;;66.88;22.92;;;;;;;;;;5030027;28;20040;-73
2021/09/29 04:12:30;;;;;;;59.05;22.50;;;;;;;;;;5024618;28;20026;-71
2021/09/29 04:14:55;;;;;;;63.75;25.45;;;;;;;;;;5014192;28;20369;-71
2021/09/29 04:17:21;;;;;;;58.95;21.73;;;;;;;;;;5021707;28;20068;-72
2021/09/29 04:19:46;;;;;;;65.95;22.33;;;;;;;;;;5023633;28;20032;-73
2021/09/29 04:22:12;;;;;;;59.72;22.98;;;;;;;;;;5009697;28;20041;-73
2021/09/29 04:24:39;;;;;;;59.85;26.10;;;;;;;;;;5011181;28;20026;-72
2021/09/29 04:27:07;;;;;;;65.68;24.13;;;;;;;;;;5011467;28;20438;-73
2021/09/29 04:29:33;;;;;;;67.13;24.63;;;;;;;;;;5009015;28;20018;-73
2021/09/29 04:31:58;;;;;;;64.40;22.63;;;;;;;;;;5015843;28;20025;-71
2021/09/29 04:34:24;;;;;;;65.57;24.77;;;;;;;;;;5025749;28;20115;-72
2021/09/29 04:36:50;;;;;;;60.63;22.92;;;;;;;;;;5008714;28;20073;-72
2021/09/29 04:39:16;;;;;;;63.05;22.55;;;;;;;;;;5010103;28;20478;-71
2021/09/29 04:41:42;;;;;;;66.93;23.40;;;;;;;;;;5027097;28;20029;-72
2021/09/29 04:44:07;;;;;;;77.28;26.73;;;;;;;;;;5029827;28;20104;-73
2021/09/29 04:46:33;;;;;;;65.85;23.88;;;;;;;;;;5029720;28;20662;-73
2021/09/29 04:48:59;;;;;;;65.85;23.38;;;;;;;;;;5049158;28;20032;-73
2021/09/29 04:51:24;;;;;;;60.92;23.95;;;;;;;;;;5043751;28;20325;-72
2021/09/29 04:53:50;;;;;;;67.53;25.70;;;;;;;;;;5027655;28;20069;-72
2021/09/29 04:56:15;;;;;;;77.88;26.35;;;;;;;;;;5027669;28;20485;-71
2021/09/29 04:58:43;;;;;;;61.05;23.27;;;;;;;;;;5028321;28;20109;-72
2021/09/29 05:01:09;;;;;;;64.88;23.80;;;;;;;;;;5023480;28;20248;-72
2021/09/29 05:03:35;;;;;;;69.72;27.23;;;;;;;;;;5009706;28;20033;-73
2021/09/29 05:06:01;;;;;;;65.32;24.92;;;;;;;;;;5008356;28;20381;-72
2021/09/29 05:08:29;;;;;;;64.85;24.98;;;;;;;;;;5008141;28;20030;-72
2021/09/29 05:11:22;;;;;;;64.90;23.60;;;;;;;;;;5009630;28;20032;-72
2021/09/29 05:13:48;;;;;;;63.13;22.70;;;;;;;;;;5011979;28;20034;-72
2021/09/29 05:16:14;;;;;;;62.78;23.63;;;;;;;;;;5012971;28;20029;-71
2021/09/29 05:18:40;;;;;;;64.53;23.65;;;;;;;;;;5022642;28;20033;-72
2021/09/29 05:21:06;;;;;;;67.03;26.05;;;;;;;;;;5016280;28;20111;-72
2021/09/29 05:23:32;;;;;;;65.35;25.80;;;;;;;;;;5023154;28;20040;-72
2021/09/29 05:25:58;;;;;;;58.55;23.25;;;;;;;;;;5010176;28;20624;-72
2021/09/29 05:28:31;;;;;;;61.50;23.88;;;;;;;;;;5019200;28;20118;-73
2021/09/29 05:30:57;;;;;;;53.35;24.52;;;;;;;;;;5011899;28;20029;-73
2021/09/29 05:33:22;;;;;;;60.42;24.33;;;;;;;;;;5014926;28;20171;-71
2021/09/29 05:35:48;;;;;;;55.15;23.88;;;;;;;;;;5025697;28;20104;-72
2021/09/29 05:38:15;;;;;;;54.10;24.48;;;;;;;;;;5021432;28;20026;-74
2021/09/29 05:40:40;;;;;;;65.53;26.83;;;;;;;;;;5018045;28;20041;-72
2021/09/29 05:43:07;;;;;;;61.42;24.77;;;;;;;;;;5016370;28;20831;-72
2021/09/29 05:45:33;;;;;;;61.88;26.25;;;;;;;;;;5028136;28;20085;-72
2021/09/29 05:47:59;;;;;;;60.97;25.30;;;;;;;;;;5030618;28;20037;-73
2021/09/29 05:50:24;;;;;;;53.42;23.73;;;;;;;;;;5022336;28;20049;-71
2021/09/29 05:52:50;;;;;;;54.65;24.17;;;;;;;;;;5022125;28;20076;-72
2021/09/29 05:55:16;;;;;;;60.83;24.60;;;;;;;;;;5012904;28;20136;-72
2021/09/29 05:57:41;;;;;;;56.90;23.10;;;;;;;;;;5029307;28;20040;-73
2021/09/29 06:00:08;;;;;;;63.65;25.48;;;;;;;;;;5028800;28;20508;-74
2021/09/29 06:02:33;;;;;;;60.30;24.55;;;;;;;;;;5028519;28;20029;-72
2021/09/29 06:04:59;;;;;;;68.97;25.08;;;;;;;;;;5031744;28;20026;-72
2021/09/29 06:07:24;;;;;;;62.42;25.33;;;;;;;;;;5025336;28;20031;-72
2021/09/29 06:09:50;;;;;;;63.72;23.23;;;;;;;;;;5020800;28;20034;-72
2021/09/29 06:12:16;;;;;;;61.08;23.63;;;;;;;;;;5022036;28;20037;-72
2021/09/29 06:14:48;;;;;;;62.88;24.15;;;;;;;;;;5034354;28;20032;-73
2021/09/29 06:17:21;;;;;;;59.25;24.45;;;;;;;;;;5036865;28;20021;-73
2021/09/29 06:19:47;;;;;;;52.70;23.45;;;;;;;;;;5030317;28;20068;-73
2021/09/29 06:22:13;;;;;;;58.05;23.52;;;;;;;;;;5017265;28;20061;-73
2021/09/29 06:24:38;;;;;;;57.92;23.80;;;;;;;;;;5017488;28;20393;-71
2021/09/29 06:27:04;;;;;;;51.72;22.40;;;;;;;;;;5017718;28;20038;-72
2021/09/29 06:29:30;;;;;;;57.03;24.85;;;;;;;;;;5029773;28;20025;-72
2021/09/29 06:31:58;;;;;;;55.15;23.90;;;;;;;;;;5021591;28;20469;-73
2021/09/29 06:34:24;;;;;;;56.88;23.70;;;;;;;;;;5017514;28;20397;-71
2021/09/29 06:36:50;;;;;;;62.17;25.55;;;;;;;;;;5024361;28;20038;-73
2021/09/29 06:39:17;;;;;;;59.35;25.92;;;;;;;;;;5018615;28;20034;-72
2021/09/29 06:41:45;;;;;;;60.63;26.92;;;;;;;;;;5020511;28;20091;-72
2021/09/29 06:44:11;;;;;;;60.90;24.75;;;;;;;;;;5022613;28;20030;-72
2021/09/29 06:46:36;;;;;;;68.95;26.30;;;;;;;;;;5020704;28;20049;-72
2021/09/29 06:49:02;;;;;;;62.17;25.00;;;;;;;;;;5023195;28;20018;-73
2021/09/29 06:51:28;;;;;;;60.88;27.15;;;;;;;;;;5020880;28;20089;-70
2021/09/29 06:53:53;;;;;;;59.20;23.92;;;;;;;;;;5026137;28;20033;-72
2021/09/29 06:56:19;;;;;;;60.70;27.13;;;;;;;;;;5026502;28;20057;-72
2021/09/29 06:58:46;;;;;;;59.47;26.17;;;;;;;;;;5028006;28;20036;-71
2021/09/29 07:01:13;;;;;;;77.40;33.28;;;;;;;;;;5025247;28;20037;-72
2021/09/29 07:03:39;;;;;;;63.75;25.40;;;;;;;;;;5028265;28;20052;-73
2021/09/29 07:06:04;;;;;;;68.47;27.67;;;;;;;;;;5026610;28;20473;-73
2021/09/29 07:08:30;;;;;;;63.33;27.23;;;;;;;;;;5025670;28;20549;-71
2021/09/29 07:10:56;;;;;;;59.30;25.38;;;;;;;;;;5024669;28;20029;-73
2021/09/29 07:13:22;;;;;;;64.22;26.20;;;;;;;;;;5025115;28;20140;-72
2021/09/29 07:15:48;;;;;;;65.95;26.25;;;;;;;;;;5018951;28;20040;-73
2021/09/29 07:18:17;;;;;;;58.45;25.80;;;;;;;;;;5033787;28;20143;-74
2021/09/29 07:20:43;;;;;;;64.05;29.23;;;;;;;;;;5030797;28;20087;-71
2021/09/29 07:23:10;;;;;;;64.03;25.98;;;;;;;;;;5025403;28;20075;-73
2021/09/29 07:25:37;;;;;;;60.28;28.25;;;;;;;;;;5032187;28;20029;-72
2021/09/29 07:28:05;;;;;;;59.15;26.58;;;;;;;;;;5026229;28;20037;-73
2021/09/29 07:30:31;;;;;;;51.75;24.40;;;;;;;;;;5024977;28;20939;-71
2021/09/29 07:33:02;;;;;;;65.93;27.17;;;;;;;;;;5008339;28;20074;-72
2021/09/29 07:35:32;;;;;;;59.88;27.30;;;;;;;;;;5021197;28;20466;-73
2021/09/29 07:37:59;;;;;;;56.45;25.92;;;;;;;;;;5006113;28;20044;-73
2021/09/29 07:40:25;;;;;;;58.58;25.95;;;;;;;;;;5025873;28;20033;-72
2021/09/29 07:42:50;;;;;;;56.15;25.23;;;;;;;;;;5014169;28;20041;-74
2021/09/29 07:45:16;;;;;;;60.67;27.38;;;;;;;;;;5028873;28;20032;-73
2021/09/29 07:47:42;;;;;;;56.85;26.10;;;;;;;;;;5013253;28;20398;-72
2021/09/29 07:50:08;;;;;;;56.95;24.75;;;;;;;;;;5021315;28;20029;-72
2021/09/29 07:52:35;;;;;;;58.65;25.60;;;;;;;;;;5030298;28;20110;-75
2021/09/29 07:55:02;;;;;;;61.55;25.88;;;;;;;;;;5038049;28;20041;-73
2021/09/29 07:57:28;;;;;;;61.40;25.33;;;;;;;;;;5028213;28;20060;-73
2021/09/29 07:59:55;;;;;;;56.53;26.92;;;;;;;;;;5027697;28;20464;-72
2021/09/29 08:02:20;;;;;;;57.95;25.27;;;;;;;;;;5041752;28;20044;-73
2021/09/29 08:04:46;;;;;;;64.03;26.23;;;;;;;;;;5025105;28;20036;-74
2021/09/29 08:07:13;;;;;;;59.55;27.95;;;;;;;;;;5022628;28;20531;-74
2021/09/29 08:09:39;;;;;;;60.63;26.58;;;;;;;;;;5018191;28;20037;-74
2021/09/29 08:12:04;;;;;;;57.95;25.52;;;;;;;;;;5022703;28;20052;-72
2021/09/29 08:14:30;;;;;;;61.20;26.77;;;;;;;;;;5045259;28;20064;-73
2021/09/29 08:16:55;;;;;;;55.47;26.90;;;;;;;;;;5035388;28;20039;-73
2021/09/29 08:19:21;;;;;;;67.97;27.17;;;;;;;;;;5034564;28;20033;-73
2021/09/29 08:21:48;;;;;;;65.97;27.08;;;;;;;;;;5037168;28;20036;-73
2021/09/29 08:24:18;;;;;;;62.13;26.85;;;;;;;;;;5029088;28;20075;-74
2021/09/29 08:39:50;;;;;;;64.70;26.55;;;;;;;;;;5022514;28;19967;-74
2021/09/29 08:42:44;;;;;;;59.08;26.27;;;;;;;;;;5024697;28;20478;-74
2021/09/29 08:45:22;;;;;;;62.10;26.30;;;;;;;;;;5029296;28;20028;-73
2021/09/29 08:47:57;;;;;;;59.33;26.85;;;;;;;;;;5018001;28;20447;-71
2021/09/29 08:50:30;;;;;;;59.28;27.73;;;;;;;;;;5023035;28;20122;-72
2021/09/29 08:56:34;;;;;;;56.03;24.75;;;;;;;;;;5025274;28;20420;-71
2021/09/29 09:17:30;;;;;;;55.60;24.85;;;;;;;;;;5023037;28;20037;-74
2021/09/29 09:20:15;;;;;;;53.38;25.83;;;;;;;;;;5020961;28;20120;-72
2021/09/29 09:22:42;;;;;;;58.00;26.38;;;;;;;;;;5025622;28;20132;-73
2021/09/29 09:25:08;;;;;;;52.47;25.48;;;;;;;;;;5028266;28;20474;-73
2021/09/29 09:27:42;;;;;;;49.33;23.35;;;;;;;;;;5021453;28;20498;-74
2021/09/29 09:30:10;;;;;;;56.08;25.48;;;;;;;;;;5031133;28;20060;-73
2021/09/29 09:32:44;;;;;;;56.20;25.85;;;;;;;;;;5021507;28;20033;-72
2021/09/29 09:35:13;;;;;;;53.58;23.52;;;;;;;;;;5032164;28;20065;-72
2021/09/29 09:37:42;;;;;;;47.78;23.42;;;;;;;;;;5028658;28;20140;-72
2021/09/29 09:40:15;;;;;;;52.85;24.65;;;;;;;;;;5024484;28;20724;-71
2021/09/29 09:42:44;;;;;;;53.95;24.42;;;;;;;;;;5039327;28;20063;-73
2021/09/29 09:45:11;;;;;;;53.80;23.90;;;;;;;;;;5037659;28;20099;-73
2021/09/29 09:47:43;;;;;;;47.38;22.90;;;;;;;;;;5031431;28;20028;-74
2021/09/29 09:50:10;;;;;;;67.57;33.35;;;;;;;;;;5038681;28;20033;-75
2021/09/29 09:52:41;;;;;;;50.50;24.40;;;;;;;;;;5038225;28;20075;-74
2021/09/29 09:55:17;;;;;;;49.97;24.77;;;;;;;;;;5033299;28;20108;-73
2021/09/29 09:57:43;;;;;;;53.53;24.38;;;;;;;;;;5030633;28;20039;-74
2021/09/29 10:00:12;;;;;;;47.30;22.45;;;;;;;;;;5032430;28;20037;-73
2021/09/29 10:02:40;;;;;;;56.25;24.50;;;;;;;;;;5019626;28;20480;-74
2021/09/29 10:05:07;;;;;;;47.58;24.30;;;;;;;;;;5026338;28;20038;-73
2021/09/29 10:07:33;;;;;;;50.10;23.55;;;;;;;;;;5022429;28;20029;-74
2021/09/29 10:10:03;;;;;;;50.38;22.13;;;;;;;;;;5018232;28;20541;-73
2021/09/29 10:12:45;;;;;;;55.40;25.42;;;;;;;;;;5034918;28;20117;-74
2021/09/29 10:22:49;;;;;;;47.67;22.38;;;;;;;;;;5018166;28;20493;-75
2021/09/29 10:26:24;;;;;;;46.22;22.83;;;;;;;;;;5020907;28;20014;-72
2021/09/29 10:29:05;;;;;;;48.47;23.30;;;;;;;;;;5019629;28;20176;-72
2021/09/29 10:34:09;;;;;;;57.50;23.63;;;;;;;;;;5020727;28;20831;-74
2021/09/29 10:42:50;;;;;;;58.20;24.02;;;;;;;;;;5035694;28;20068;-72
2021/09/29 10:47:57;;;;;;;52.08;24.17;;;;;;;;;;5023253;28;20059;-72
2021/09/29 11:04:09;;;;;;;30.23;15.50;;;;;;;;;;5016114;28;20154;-74
2021/09/29 11:28:57;;;;;;;21.23;10.18;;;;;;;;;;5025461;28;20050;-75
2021/09/29 11:31:43;;;;;;;14.52;8.90;;;;;;;;;;5031054;28;20119;-74
2021/09/29 11:34:23;;;;;;;16.58;9.52;;;;;;;;;;5035575;28;20535;-73
2021/09/29 12:07:57;;;;;;;19.73;9.05;;;;;;;;;;5016447;28;20091;-75
2021/09/29 12:09:39;;;;;;;7.72;4.85;;;;;;;;;;5022758;28;20695;-73
2021/09/29 12:12:28;;;;;;;6.68;4.32;;;;;;;;;;5028289;28;20029;-74
2021/09/29 12:15:03;;;;;;;6.70;4.30;;;;;;;;;;5037578;28;20476;-74
2021/09/29 12:17:32;;;;;;;6.70;4.50;;;;;;;;;;5026004;28;20033;-73
2021/09/29 12:20:08;;;;;;;10.32;4.60;;;;;;;;;;5039986;28;20488;-73
2021/09/29 12:22:40;;;;;;;5.20;4.60;;;;;;;;;;5026703;28;20504;-73
2021/09/29 12:25:11;;;;;;;7.63;4.20;;;;;;;;;;5039549;28;20025;-73
2021/09/29 12:28:11;;;;;;;5.57;4.43;;;;;;;;;;5035146;28;20028;-73
2021/09/29 12:30:34;;;;;;;5.93;3.80;;;;;;;;;;5024733;28;21281;-73
2021/09/29 12:35:51;;;;;;;5.43;4.00;;;;;;;;;;5034455;28;20060;-73
2021/09/29 12:38:18;;;;;;;5.72;3.97;;;;;;;;;;5029165;28;20034;-72
2021/09/29 12:40:45;;;;;;;6.50;4.35;;;;;;;;;;5024175;28;20373;-73
2021/09/29 12:43:14;;;;;;;19.42;6.45;;;;;;;;;;5033966;28;20462;-73
2021/09/29 12:45:43;;;;;;;7.70;5.47;;;;;;;;;;5010860;28;20030;-74
2021/09/29 12:48:10;;;;;;;5.18;4.25;;;;;;;;;;5029157;28;20547;-72
2021/09/29 12:50:58;;;;;;;9.77;5.40;;;;;;;;;;5022363;28;20064;-73
2021/09/29 12:56:16;;;;;;;8.05;5.82;;;;;;;;;;5036815;28;20056;-73
2021/09/29 12:58:42;;;;;;;7.85;5.70;;;;;;;;;;5022470;28;20037;-73
2021/09/29 13:01:09;;;;;;;9.40;6.05;;;;;;;;;;5027031;28;20041;-72
2021/09/29 13:03:34;;;;;;;12.07;5.57;;;;;;;;;;5036082;28;20124;-74
2021/09/29 13:06:01;;;;;;;7.30;5.50;;;;;;;;;;5015749;28;20140;-73
2021/09/29 13:08:28;;;;;;;8.95;6.20;;;;;;;;;;5026491;28;20022;-73
2021/09/29 13:10:59;;;;;;;10.57;6.53;;;;;;;;;;5007105;28;20021;-74
2021/09/29 13:13:26;;;;;;;10.90;6.43;;;;;;;;;;5024073;28;20025;-76
2021/09/29 13:15:54;;;;;;;9.90;6.40;;;;;;;;;;5023892;28;20041;-75
2021/09/29 13:18:26;;;;;;;17.67;7.45;;;;;;;;;;5014893;28;20025;-75
2021/09/29 13:20:58;;;;;;;15.48;7.35;;;;;;;;;;5029388;28;20033;-75
2021/09/29 13:23:38;;;;;;;9.80;6.68;;;;;;;;;;5041280;28;20032;-75
2021/09/29 13:26:25;;;;;;;8.98;6.47;;;;;;;;;;5043246;28;20703;-74
2021/09/29 13:37:06;;;;;;;9.32;6.40;;;;;;;;;;5033281;28;20480;-75
2021/09/29 13:39:32;;;;;;;10.63;7.05;;;;;;;;;;5044765;28;20056;-74
2021/09/29 13:42:00;;;;;;;8.25;5.70;;;;;;;;;;5022038;28;20042;-74
2021/09/29 13:44:26;;;;;;;10.50;6.40;;;;;;;;;;5027512;28;20033;-74
2021/09/29 13:46:52;;;;;;;10.45;5.80;;;;;;;;;;5013657;28;20022;-75
2021/09/29 13:49:20;;;;;;;7.75;5.20;;;;;;;;;;5029601;28;20049;-75
2021/09/29 13:51:49;;;;;;;8.43;5.65;;;;;;;;;;5039754;28;20110;-74
2021/09/29 13:54:18;;;;;;;10.00;6.00;;;;;;;;;;5037934;28;20440;-74
2021/09/29 14:31:20;;;;;;;11.75;5.63;;;;;;;;;;5028209;28;20034;-74
2021/09/29 14:33:49;;;;;;;10.32;4.85;;;;;;;;;;5017509;28;20096;-75
2021/09/29 14:36:18;;;;;;;7.55;3.65;;;;;;;;;;5036932;28;20061;-74
2021/09/29 14:38:47;;;;;;;12.00;6.00;;;;;;;;;;5046358;28;20056;-75
2021/09/29 14:41:13;;;;;;;8.70;5.35;;;;;;;;;;5051930;28;20036;-74
2021/09/29 14:43:38;;;;;;;7.95;3.08;;;;;;;;;;5040960;28;20037;-74
2021/09/29 14:46:06;;;;;;;5.75;3.90;;;;;;;;;;5029453;28;20026;-75
2021/09/29 14:48:32;;;;;;;7.25;3.03;;;;;;;;;;5023593;28;20083;-74
2021/09/29 14:50:57;;;;;;;9.10;3.63;;;;;;;;;;5030048;28;20481;-75
2021/09/29 14:53:23;;;;;;;7.22;3.15;;;;;;;;;;5029452;28;20480;-76
2021/09/29 14:55:48;;;;;;;8.77;3.47;;;;;;;;;;5028077;28;20021;-74
2021/09/29 14:58:14;;;;;;;7.55;3.42;;;;;;;;;;5027478;28;20575;-75
2021/09/29 15:00:40;;;;;;;10.10;3.88;;;;;;;;;;5025741;28;20044;-73
2021/09/29 15:03:06;;;;;;;5.47;3.50;;;;;;;;;;5028777;28;20394;-75
2021/09/29 15:05:31;;;;;;;15.35;5.05;;;;;;;;;;5028621;28;20024;-74
2021/09/29 15:07:58;;;;;;;12.45;3.75;;;;;;;;;;5021457;28;20124;-75
2021/09/29 15:10:24;;;;;;;9.30;3.63;;;;;;;;;;5029808;28;20080;-75
2021/09/29 15:12:49;;;;;;;4.80;2.97;;;;;;;;;;5002144;28;20332;-75
2021/09/29 15:15:24;;;;;;;6.35;3.50;;;;;;;;;;5009712;28;20029;-75
2021/09/29 15:17:56;;;;;;;16.33;5.13;;;;;;;;;;5026149;28;20111;-75
2021/09/29 15:20:51;;;;;;;8.80;3.17;;;;;;;;;;5029495;28;20488;-74
2021/09/29 15:47:22;;;;;;;4.65;2.85;;;;;;;;;;5023192;28;20390;-73
2021/09/29 15:55:16;;;;;;;9.20;3.50;;;;;;;;;;5030022;28;20026;-76
2021/09/29 15:58:06;;;;;;;5.25;3.13;;;;;;;;;;5027661;28;20473;-75
2021/09/29 16:31:24;;;;;;;7.10;3.03;;;;;;;;;;5018729;28;20393;-74
2021/09/29 16:33:53;;;;;;;6.55;3.08;;;;;;;;;;5007965;28;20061;-74
2021/09/29 16:36:20;;;;;;;7.55;3.03;;;;;;;;;;5021707;28;20034;-74
2021/09/29 16:38:47;;;;;;;6.25;3.30;;;;;;;;;;5008027;28;20168;-73
2021/09/29 16:41:14;;;;;;;10.75;3.40;;;;;;;;;;5008236;28;20021;-75
2021/09/29 16:43:40;;;;;;;8.57;2.70;;;;;;;;;;5009203;28;20034;-74
2021/09/29 16:46:06;;;;;;;12.20;4.47;;;;;;;;;;5009597;28;20021;-75
2021/09/29 16:48:33;;;;;;;9.25;5.25;;;;;;;;;;5009670;28;20393;-76
2021/09/29 16:51:12;;;;;;;9.38;2.65;;;;;;;;;;5010508;28;20398;-77
2021/09/29 16:53:44;;;;;;;10.88;3.50;;;;;;;;;;5008444;28;20030;-74
2021/09/29 16:56:11;;;;;;;8.40;3.90;;;;;;;;;;5008352;28;20501;-73
2021/09/29 17:01:12;;;;;;;6.47;3.03;;;;;;;;;;5010563;28;20113;-74
2021/09/29 17:03:40;;;;;;;9.57;2.95;;;;;;;;;;4992967;28;20180;-74
2021/09/29 17:06:06;;;;;;;9.55;3.90;;;;;;;;;;5008344;28;20477;-75
2021/09/29 17:08:33;;;;;;;10.63;5.00;;;;;;;;;;5009225;28;20045;-74
2021/09/29 17:11:00;;;;;;;9.65;4.90;;;;;;;;;;4991600;28;20034;-75
2021/09/29 17:13:35;;;;;;;19.63;5.22;;;;;;;;;;5008010;28;20450;-73
2021/09/29 17:16:02;;;;;;;8.50;4.53;;;;;;;;;;5008337;28;20030;-75
2021/09/29 17:18:27;;;;;;;11.32;4.15;;;;;;;;;;5009346;28;20528;-75
2021/09/29 17:20:53;;;;;;;10.55;3.20;;;;;;;;;;5009517;28;20026;-75
2021/09/29 17:23:18;;;;;;;10.27;3.40;;;;;;;;;;5009567;28;20470;-73
2021/09/29 17:25:45;;;;;;;6.97;4.40;;;;;;;;;;5009473;28;20026;-74
2021/09/29 17:28:15;;;;;;;14.80;3.75;;;;;;;;;;5008052;28;20037;-74
2021/09/29 17:30:42;;;;;;;10.52;3.83;;;;;;;;;;5009323;28;20026;-73
2021/09/29 17:33:44;;;;;;;24.50;10.32;;;;;;;;;;5010090;28;20573;-78
2021/09/29 17:54:13;;;;;;;15.00;5.60;;;;;;;;;;5013017;28;20107;-74
2021/09/29 17:56:38;;;;;;;15.57;4.95;;;;;;;;;;5011408;28;20488;-75
2021/09/29 17:59:04;;;;;;;10.07;4.80;;;;;;;;;;5012990;28;20028;-74
2021/09/29 18:01:31;;;;;;;13.35;5.88;;;;;;;;;;5011048;28;20401;-74
2021/09/29 18:04:03;;;;;;;9.55;4.90;;;;;;;;;;4995091;28;20056;-73
2021/09/29 18:08:56;;;;;;;14.25;5.50;;;;;;;;;;5013071;28;20033;-76
2021/09/29 18:11:21;;;;;;;22.67;9.20;;;;;;;;;;5011380;28;20029;-74
2021/09/29 18:13:47;;;;;;;17.02;8.10;;;;;;;;;;5010798;28;20021;-74
2021/09/29 18:16:12;;;;;;;12.45;5.20;;;;;;;;;;5010871;28;20412;-74
2021/09/29 18:18:38;;;;;;;19.42;7.18;;;;;;;;;;5010745;28;20026;-74
2021/09/29 18:21:03;;;;;;;43.70;16.05;;;;;;;;;;5011165;28;20048;-73
2021/09/29 18:23:29;;;;;;;21.90;6.68;;;;;;;;;;5012190;28;20066;-74
2021/09/29 18:25:59;;;;;;;18.67;6.72;;;;;;;;;;5012653;28;20393;-75
2021/09/29 18:28:24;;;;;;;15.15;6.13;;;;;;;;;;5011007;28;20068;-75
2021/09/29 18:30:53;;;;;;;18.55;6.70;;;;;;;;;;5011998;28;20528;-75
2021/09/29 18:33:22;;;;;;;17.33;6.85;;;;;;;;;;5010467;28;20064;-74
2021/09/29 18:35:52;;;;;;;17.42;6.55;;;;;;;;;;5010649;28;20038;-74
2021/09/29 18:38:26;;;;;;;15.88;8.73;;;;;;;;;;5011855;28;20402;-73
2021/09/29 18:40:52;;;;;;;17.08;6.75;;;;;;;;;;5012072;28;20029;-73
2021/09/29 18:43:18;;;;;;;21.20;8.85;;;;;;;;;;5011747;28;20033;-74